Terminal Aerodrome Forecast
Issued by NWS

Home | Current Version | Previous Version | Text Only | Print | Product List | Glossary On
Versions: 1 2 3 4 5 6 7 8 9 10 11 12 13 14 15 16 17
000
FTUS43 KPAH 080500
TAFCGI
TAF
KCGI 080520Z 0806/0906 20008KT P6SM SCT100 BKN200
     FM080800 21009KT P6SM VCTS SCT050CB BKN150
      TEMPO 0808/0812 3SM TSRA BKN025CB
     FM081500 23012G20KT P6SM VCTS SCT040CB BKN150
     FM082300 30006KT P6SM BKN070=

USA.gov is the U.S. government's official web portal to all federal, state and local government web resources and services.